Latest Weather Observations for Broome

IDW60801

Issued at 6:43 pm WST Monday 17 December 2018 (issued every 10 minutes, with the page automatically refreshed every 10 minutes)

About weather observations | Map of weather stations | Latest weather observations for WA | Other Formats
Station Details ID: 003003 Name: BROOME AIRPORT Lat: -17.95 Lon: 122.24 Height: 7.42 m
Data from the previous 72 hours. | See also: Recent months at Broome
Date/Time
WST
Temp
°C
App
Temp
°C
Dew
Point
°C
Rel
Hum
%
Delta-T
°C
Wind Press
QNH
hPa
Press
MSL
hPa
Rain since
9am
mm
Dir  Spd
km/h
Gust
km/h
Spd
kts
Gust
kts
17/06:30pm 26.8 26.4 18.9 62 5.1 W 19 28 10 15 1006.7 1006.6 0.0
17/06:00pm 27.2 26.2 18.8 60 5.4 WNW 22 33 12 18 1006.4 1006.3 0.0
17/05:30pm 27.8 26.4 18.8 58 5.8 WNW 24 32 13 17 1006.2 1006.1 0.0
17/05:00pm 28.4 27.0 18.8 56 6.2 W 24 32 13 17 1006.1 1006.0 0.0
17/04:30pm 29.3 28.0 19.1 54 6.6 W 24 35 13 19 1005.9 1005.8 0.0
17/04:00pm 29.1 27.8 19.1 54 6.5 WNW 24 33 13 18 1006.0 1005.9 0.0
17/03:30pm 29.6 28.0 19.1 53 6.8 W 26 33 14 18 1006.2 1006.1 0.0
17/03:00pm 29.8 28.7 19.4 53 6.8 W 24 35 13 19 1006.3 1006.2 0.0
17/02:30pm 29.7 28.4 19.1 53 6.9 W 24 33 13 18 1006.6 1006.5 0.0
17/02:00pm 30.0 28.6 19.6 53 6.8 W 26 33 14 18 1006.9 1006.8 0.0
17/01:30pm 30.4 29.4 19.6 52 7.1 WNW 24 33 13 18 1007.2 1007.1 0.0
17/01:00pm 29.6 28.4 20.0 56 6.3 W 26 35 14 19 1007.4 1007.3 0.0
17/12:30pm 30.0 28.9 20.3 56 6.4 W 26 33 14 18 1007.6 1007.5 0.0
17/12:00pm 30.2 29.0 20.0 54 6.7 W 26 35 14 19 1007.9 1007.8 0.0
17/11:30am 30.4 29.3 19.4 51 7.2 W 24 35 13 19 1008.1 1008.0 0.0
17/11:00am 30.0 28.5 19.4 53 6.9 W 26 35 14 19 1008.3 1008.2 0.0
17/10:30am 30.0 29.1 19.8 54 6.7 W 24 35 13 19 1008.5 1008.4 0.0
17/10:00am 30.1 28.4 19.7 53 6.8 WSW 28 35 15 19 1008.6 1008.5 0.0
17/09:30am 29.7 28.7 19.6 54 6.6 W 24 35 13 19 1008.9 1008.8 0.0
17/09:00am 30.0 28.8 19.3 52 7.0 W 24 32 13 17 1009.0 1008.9 0.0
17/08:30am 29.1 28.4 19.6 56 6.2 WSW 22 32 12 17 1008.9 1008.8 0.0
17/08:00am 28.7 27.1 19.3 56 6.1 WSW 26 35 14 19 1008.7 1008.6 0.0
17/07:30am 28.4 27.4 19.7 59 5.7 W 24 33 13 18 1008.6 1008.5 0.0
17/07:00am 28.2 27.5 19.4 59 5.7 W 22 32 12 17 1008.6 1008.5 0.0
17/06:30am 27.2 26.7 19.1 61 5.2 W 20 32 11 17 1008.4 1008.3 0.0
17/06:00am 27.2 26.5 20.2 65 4.6 WSW 24 35 13 19 1007.9 1007.8 0.0
17/05:30am 26.6 25.7 19.8 66 4.4 WSW 24 32 13 17 1007.3 1007.2 0.0
17/05:00am 26.5 25.7 20.1 68 4.2 W 24 33 13 18 1006.7 1006.6 0.0
17/04:30am 26.5 26.1 20.1 68 4.2 W 22 30 12 16 1006.3 1006.2 0.0
17/04:00am 26.5 25.6 19.9 67 4.3 W 24 39 13 21 1006.1 1006.0 0.0
17/03:30am 26.4 25.6 20.1 68 4.1 W 24 35 13 19 1005.9 1005.8 0.0
17/03:00am 26.4 25.8 20.5 70 3.9 W 24 35 13 19 1005.8 1005.7 0.0
17/02:30am 26.4 25.3 20.3 69 4.0 W 26 41 14 22 1005.9 1005.8 0.0
17/02:00am 26.3 25.4 20.7 71 3.7 W 26 35 14 19 1005.9 1005.8 0.0
17/01:30am 26.3 25.8 20.8 71 3.6 W 24 39 13 21 1005.9 1005.8 0.0
17/01:00am 26.4 25.0 20.5 70 3.9 W 28 35 15 19 1006.0 1005.9 0.0
17/12:30am 26.6 26.1 20.8 70 3.8 W 24 35 13 19 1006.5 1006.4 0.0
17/12:00am 26.7 26.5 21.3 72 3.6 W 24 32 13 17 1006.7 1006.6 0.0
 
Date/Time
WST
Temp
°C
App
Temp
°C
Dew
Point
°C
Rel
Hum
%
Delta-T
°C
Wind Press
QNH
hPa
Press
MSL
hPa
Rain since
9am
mm
Dir  Spd
km/h
Gust
km/h
Spd
kts
Gust
kts
16/11:30pm 26.7 25.6 21.0 71 3.8 W 28 41 15 22 1007.0 1006.9 0.0
16/11:00pm 26.8 26.3 21.4 72 3.6 W 26 35 14 19 1007.2 1007.1 0.0
16/10:30pm 26.9 26.8 21.5 72 3.6 WNW 24 35 13 19 1007.4 1007.3 0.0
16/10:00pm 27.0 26.9 21.5 72 3.7 W 24 33 13 18 1007.7 1007.6 0.0
16/09:30pm 27.1 27.1 21.6 72 3.7 W 24 32 13 17 1007.7 1007.6 0.0
16/09:00pm 27.0 27.3 21.5 72 3.7 WNW 22 33 12 18 1007.4 1007.3 0.0
16/08:30pm 26.9 26.8 21.5 72 3.6 WNW 24 35 13 19 1007.2 1007.1 0.0
16/08:00pm 27.1 27.0 21.4 71 3.8 W 24 33 13 18 1007.0 1006.9 0.0
16/07:30pm 27.1 27.9 21.7 72 3.6 W 20 35 11 19 1006.8 1006.7 0.0
16/07:00pm 27.2 28.0 21.8 72 3.6 W 20 32 11 17 1006.7 1006.6 0.0
16/06:30pm 27.4 27.4 21.6 70 3.9 WNW 24 32 13 17 1006.7 1006.6 0.0
16/06:00pm 27.7 27.6 21.4 68 4.2 WNW 24 32 13 17 1006.5 1006.4 0.0
16/05:30pm 28.2 28.3 21.8 68 4.3 WNW 24 33 13 18 1006.1 1006.0 0.0
16/05:00pm 28.7 28.1 21.2 64 5.0 W 26 35 14 19 1006.0 1005.9 0.0
16/04:30pm 29.7 29.1 21.9 63 5.3 W 28 39 15 21 1006.0 1005.9 0.0
16/04:00pm 30.0 29.2 21.7 61 5.6 W 28 37 15 20 1006.0 1005.9 0.0
16/03:30pm 29.3 29.0 21.9 64 5.0 WNW 26 39 14 21 1006.1 1006.0 0.0
16/03:00pm 30.0 29.6 21.7 61 5.6 W 26 37 14 20 1006.1 1006.0 0.0
16/02:30pm 30.3 29.0 21.4 59 6.0 W 30 39 16 21 1006.3 1006.2 0.0
16/02:00pm 30.2 28.6 21.6 60 5.8 WNW 32 43 17 23 1006.5 1006.4 0.0
16/01:30pm 30.8 29.5 21.3 57 6.4 WNW 30 43 16 23 1006.8 1006.7 0.0
16/01:00pm 30.9 29.5 21.2 56 6.5 W 30 43 16 23 1007.0 1006.9 0.0
16/12:30pm 30.9 29.8 21.7 58 6.2 W 30 39 16 21 1007.1 1007.0 0.0
16/12:00pm 30.1 29.3 21.6 60 5.7 WNW 28 39 15 21 1007.2 1007.1 0.0
16/11:30am 30.6 29.6 21.9 59 5.9 W 30 39 16 21 1007.3 1007.2 0.0
16/11:00am 30.8 29.9 21.4 57 6.3 W 28 39 15 21 1007.4 1007.3 0.0
16/10:30am 31.0 30.7 21.8 58 6.2 W 26 39 14 21 1007.7 1007.6 0.0
16/10:00am 30.1 30.1 21.6 60 5.7 W 24 35 13 19 1008.0 1007.9 0.0
16/09:30am 30.9 30.5 21.6 57 6.3 W 26 35 14 19 1008.1 1008.0 0.0
16/09:00am 30.7 30.4 21.8 59 6.0 W 26 37 14 20 1008.1 1008.0 0.0
16/08:30am 29.2 28.9 21.8 64 5.0 W 26 35 14 19 1008.1 1008.0 0.0
16/08:00am 29.7 29.7 21.7 62 5.4 W 24 33 13 18 1007.8 1007.7 0.0
16/07:30am 29.2 29.3 21.8 64 5.0 W 24 33 13 18 1007.5 1007.4 0.0
16/07:00am 28.4 28.6 22.0 68 4.3 W 24 33 13 18 1007.2 1007.1 0.0
16/06:30am 28.1 28.2 21.9 69 4.2 W 24 35 13 19 1006.8 1006.7 0.0
16/06:00am 28.0 28.1 21.9 69 4.1 W 24 33 13 18 1006.4 1006.3 0.0
16/05:30am 27.6 27.9 21.5 69 4.1 W 22 30 12 16 1006.1 1006.0 0.0
16/05:00am 27.5 27.7 22.0 72 3.7 WNW 24 32 13 17 1005.7 1005.6 0.0
16/04:30am 27.6 27.7 21.8 70 3.9 W 24 37 13 20 1005.5 1005.4 0.0
16/04:00am 27.6 28.3 22.3 73 3.6 W 22 32 12 17 1005.2 1005.1 0.0
16/03:30am 27.5 28.3 22.5 74 3.4 WNW 22 33 12 18 1005.0 1004.9 0.0
16/03:00am 27.5 28.2 22.3 73 3.5 WNW 22 32 12 17 1005.0 1004.9 0.0
16/02:30am 27.5 27.7 22.0 72 3.7 WNW 24 33 13 18 1005.0 1004.9 0.0
16/02:00am 27.4 28.8 22.8 76 3.1 WNW 20 33 11 18 1004.9 1004.8 0.0
16/01:30am 27.5 28.3 22.5 74 3.4 WNW 22 33 12 18 1004.9 1004.8 0.0
16/01:00am 27.7 28.2 21.9 70 3.9 WNW 22 33 12 18 1005.0 1004.9 0.0
16/12:30am 27.7 28.8 22.4 73 3.6 WNW 20 30 11 16 1005.1 1005.0 0.0
16/12:00am 27.8 29.1 22.7 74 3.5 WNW 20 32 11 17 1005.3 1005.2 0.0
 
Date/Time
WST
Temp
°C
App
Temp
°C
Dew
Point
°C
Rel
Hum
%
Delta-T
°C
Wind Press
QNH
hPa
Press
MSL
hPa
Rain since
9am
mm
Dir  Spd
km/h
Gust
km/h
Spd
kts
Gust
kts
15/11:30pm 27.9 28.6 22.3 71 3.8 WNW 22 32 12 17 1005.5 1005.4 0.0
15/11:00pm 28.0 29.0 22.2 70 3.9 WNW 20 28 11 15 1005.6 1005.5 0.0
15/10:30pm 28.1 28.8 22.3 70 3.9 WNW 22 30 12 16 1005.8 1005.7 0.0
15/10:00pm 28.1 28.6 22.7 72 3.7 WNW 24 33 13 18 1005.9 1005.8 0.0
15/09:30pm 28.2 29.5 22.6 71 3.8 WNW 20 32 11 17 1005.5 1005.4 0.0
15/09:00pm 28.3 29.4 22.4 70 4.0 WNW 20 28 11 15 1005.1 1005.0 0.0
15/08:30pm 28.3 29.6 22.6 71 3.9 WNW 20 28 11 15 1004.9 1004.8 0.0
15/08:00pm 28.5 29.5 22.1 68 4.3 WNW 20 28 11 15 1004.5 1004.4 0.0
15/07:30pm 28.5 29.6 22.3 69 4.2 WNW 20 26 11 14 1004.3 1004.2 0.0
15/07:00pm 28.6 30.0 22.6 70 4.1 WNW 19 28 10 15 1004.1 1004.0 0.0
15/06:30pm 28.7 29.9 22.5 69 4.2 WNW 20 28 11 15 1004.1 1004.0 0.0
15/06:00pm 29.3 30.7 22.9 68 4.4 WNW 20 28 11 15 1003.7 1003.6 0.0
15/05:30pm 29.8 31.0 22.5 65 5.0 WNW 20 32 11 17 1003.5 1003.4 0.0
15/05:00pm 30.5 30.9 21.8 59 5.9 WNW 22 32 12 17 1003.2 1003.1 0.0
15/04:30pm 30.9 32.2 22.6 61 5.7 WNW 20 28 11 15 1003.2 1003.1 0.0
15/04:00pm 31.1 32.1 22.8 61 5.7 WNW 22 30 12 16 1003.1 1003.0 0.0
15/03:30pm 31.5 32.1 22.8 60 6.0 WNW 24 32 13 17 1003.1 1003.0 0.0
15/03:00pm 31.2 31.7 22.6 60 5.9 WNW 24 33 13 18 1003.3 1003.2 0.0
15/02:30pm 31.5 32.0 22.6 59 6.1 WNW 24 37 13 20 1003.5 1003.4 0.0
15/02:00pm 32.0 32.4 22.5 57 6.5 WNW 24 35 13 19 1003.7 1003.6 0.0
15/01:30pm 32.3 32.7 22.4 56 6.8 WNW 24 35 13 19 1003.7 1003.6 0.0
15/01:00pm 32.4 32.5 21.8 53 7.2 WNW 24 35 13 19 1004.0 1003.9 0.0
15/12:30pm 33.3 33.7 22.4 52 7.5 WNW 24 33 13 18 1004.4 1004.3 0.0
15/12:00pm 31.6 32.2 22.1 57 6.5 WNW 22 32 12 17 1004.6 1004.5 0.0
15/11:30am 32.0 33.1 23.0 59 6.2 WNW 22 32 12 17 1004.8 1004.7 0.0
15/11:00am 31.4 33.0 23.3 62 5.6 WNW 20 30 11 16 1005.1 1005.0 0.0
15/10:30am 31.4 33.2 23.5 63 5.5 WNW 20 30 11 16 1005.4 1005.3 0.0
15/10:00am 31.7 33.9 24.0 63 5.4 NW 19 28 10 15 1005.6 1005.5 0.0
15/09:30am 31.5 33.6 24.1 65 5.2 WNW 20 28 11 15 1005.8 1005.7 0.0
15/09:00am 31.0 33.2 24.3 67 4.7 WNW 20 26 11 14 1006.1 1006.0 -
15/08:30am 31.1 33.8 24.2 66 4.8 NW 17 26 9 14 1006.1 1006.0 -
15/08:00am 30.2 32.9 24.2 70 4.2 NW 17 24 9 13 1006.1 1006.0 -
15/07:30am 29.7 32.4 24.1 72 3.9 WNW 17 24 9 13 1005.8 1005.7 -
15/07:00am 29.6 33.0 24.6 74 3.5 WNW 15 20 8 11 1005.8 1005.7 -
15/06:30am 28.9 31.6 24.2 76 3.3 WNW 17 22 9 12 1005.6 1005.5 -
15/06:00am 28.6 32.5 24.3 77 3.0 WNW 11 17 6 9 1005.4 1005.3 -
15/05:30am 28.2 31.9 24.5 80 2.6 NW 13 19 7 10 1005.4 1005.3 -
15/05:00am 28.1 31.9 24.7 82 2.4 WNW 13 20 7 11 1005.0 1004.9 -
15/04:30am 28.1 32.1 25.0 83 2.2 NW 13 19 7 10 1004.7 1004.6 -
15/04:00am 28.0 32.2 24.7 82 2.3 NW 11 15 6 8 1004.3 1004.2 -
15/03:30am 28.0 31.8 24.7 82 2.3 NW 13 19 7 10 1003.8 1003.7 -
15/03:00am 28.1 31.5 24.7 82 2.4 NW 15 20 8 11 1003.7 1003.6 0.0
15/02:30am 28.3 30.6 24.4 79 2.7 NW 20 28 11 15 1003.8 1003.7 -
15/02:00am 28.4 30.7 24.4 79 2.8 WNW 20 30 11 16 1004.0 1003.9 -
15/01:30am 28.4 30.6 24.2 78 2.9 WNW 20 28 11 15 1004.3 1004.2 -
15/01:00am 28.5 31.4 24.5 79 2.8 WNW 17 24 9 13 1004.6 1004.5 -
15/12:30am 28.6 31.6 24.6 79 2.8 NW 17 22 9 12 1004.8 1004.7 -
15/12:00am 28.6 31.2 24.6 79 2.8 NW 19 24 10 13 1004.9 1004.8 -
 
Date/Time
WST
Temp
°C
App
Temp
°C
Dew
Point
°C
Rel
Hum
%
Delta-T
°C
Wind Press
QNH
hPa
Press
MSL
hPa
Rain since
9am
mm
Dir  Spd
km/h
Gust
km/h
Spd
kts
Gust
kts
14/11:30pm 28.8 32.3 24.8 79 2.8 NW 15 20 8 11 1005.3 1005.2 -
14/11:00pm 28.7 32.4 24.5 78 2.9 NW 13 20 7 11 1005.7 1005.6 -
14/10:30pm 28.7 31.6 24.5 78 2.9 NW 17 24 9 13 1005.6 1005.5 -
14/10:00pm 28.9 31.6 24.8 78 2.9 NW 19 26 10 14 1005.7 1005.6 -
14/09:30pm 28.9 31.4 24.5 77 3.1 NW 19 26 10 14 1005.8 1005.7 -
14/09:00pm 29.0 31.4 24.6 77 3.1 NW 20 28 11 15 1005.6 1005.5 0.0
14/08:30pm 29.0 31.6 24.6 77 3.1 NW 19 28 10 15 1005.2 1005.1 -
14/08:00pm 29.0 31.4 24.6 77 3.1 NW 20 30 11 16 1004.9 1004.8 -
14/07:30pm 29.1 30.6 24.4 76 3.3 NW 24 32 13 17 1004.6 1004.5 -
14/07:00pm 29.1 30.7 24.5 76 3.2 NW 24 33 13 18 1004.5 1004.4 -

Other Formats:

Comma delimited format used in spreadsheet applications
http://www.bom.gov.au/fwo/IDW60801/IDW60801.94203.axf

JavaScript Object Notation format (JSON) in row-major order
http://www.bom.gov.au/fwo/IDW60801/IDW60801.94203.json